Time;durP1;ratioP1;P1;durP2;ratioP2;P2;SDS_P1;SDS_P2;PMS_P1;PMS_P2;Temp;Humidity;BMP_temperature;BMP_pressure;BME280_temperature;BME280_humidity;BME280_pressure;Samples;Min_cycle;Max_cycle;Signal;HPM_P1;HPM_P2
2023/10/31 00:00:39;;;;;;;1.00;1.00;;;18.40;76.60;19.40;98869.00;;;;5072721;28;20262;-52
2023/10/31 00:03:05;;;;;;;1.40;1.30;;;18.40;76.50;19.40;98864.00;;;;5072597;28;20622;-53
2023/10/31 00:05:31;;;;;;;1.40;1.30;;;18.40;76.50;19.40;98864.00;;;;5072729;28;20260;-53
2023/10/31 00:07:57;;;;;;;1.60;1.50;;;18.40;76.50;19.40;98822.00;;;;5072829;28;20188;-54
2023/10/31 00:10:22;;;;;;;1.33;1.30;;;18.40;76.50;19.50;98875.00;;;;5072680;28;20656;-53
2023/10/31 00:12:48;;;;;;;1.23;1.10;;;18.40;76.50;19.40;98880.00;;;;5072672;28;20175;-54
2023/10/31 00:15:14;;;;;;;1.33;1.23;;;18.40;76.50;19.40;98884.00;;;;5072576;28;20538;-54
2023/10/31 00:17:40;;;;;;;1.20;1.20;;;18.40;76.60;19.50;98899.00;;;;5072503;28;20648;-54
2023/10/31 00:20:06;;;;;;;1.20;1.20;;;18.40;76.60;19.40;98901.00;;;;5072348;28;20182;-53
2023/10/31 00:22:32;;;;;;;1.23;1.23;;;18.40;76.70;19.50;98908.00;;;;5072517;28;20234;-53
2023/10/31 00:24:57;;;;;;;1.20;1.20;;;18.40;76.60;19.40;98900.00;;;;5072217;28;20214;-53
2023/10/31 00:27:23;;;;;;;1.27;1.17;;;18.40;76.60;19.50;98904.00;;;;5058344;28;20184;-53
2023/10/31 00:29:49;;;;;;;1.53;1.43;;;18.40;76.60;19.40;98905.00;;;;5051994;28;20767;-54
2023/10/31 00:32:15;;;;;;;1.67;1.40;;;18.40;76.60;19.40;98906.00;;;;5050793;28;20174;-54
2023/10/31 00:34:40;;;;;;;1.80;1.50;;;18.40;76.60;19.50;98909.00;;;;5052043;28;20680;-53
2023/10/31 00:37:06;;;;;;;1.33;1.30;;;18.40;76.60;19.40;98910.00;;;;5050896;28;20282;-53
2023/10/31 00:39:33;;;;;;;1.17;1.17;;;18.40;76.60;19.50;98920.00;;;;5052119;28;20578;-54
2023/10/31 00:41:59;;;;;;;1.10;1.10;;;18.40;76.60;19.40;98923.00;;;;5051728;28;20190;-53
2023/10/31 00:44:25;;;;;;;1.10;1.00;;;18.40;76.70;19.40;98923.00;;;;5052209;28;20214;-53
2023/10/31 00:46:51;;;;;;;1.30;1.20;;;18.40;76.70;19.40;98923.00;;;;5052057;28;20217;-53
2023/10/31 00:49:16;;;;;;;1.00;1.00;;;18.40;76.70;19.40;98928.00;;;;5051959;28;20183;-54
2023/10/31 00:51:42;;;;;;;1.83;1.47;;;18.30;76.60;19.40;98936.00;;;;5051781;28;20188;-54
2023/10/31 00:54:08;;;;;;;1.40;1.30;;;18.30;76.60;19.40;98937.00;;;;5051729;28;20210;-54
2023/10/31 00:56:34;;;;;;;1.13;1.13;;;18.30;76.60;19.40;98941.00;;;;5051762;28;20188;-54
2023/10/31 00:59:00;;;;;;;1.27;1.27;;;18.30;76.60;19.40;98944.00;;;;5051546;28;20686;-54
2023/10/31 01:01:26;;;;;;;1.20;1.20;;;18.40;76.70;19.40;98951.00;;;;5060332;28;20422;-54
2023/10/31 01:03:51;;;;;;;1.77;1.40;;;18.30;76.60;19.40;98950.00;;;;5070496;28;20911;-53
2023/10/31 01:06:17;;;;;;;1.00;1.00;;;18.30;76.60;19.40;98944.00;;;;5070588;28;20183;-53
2023/10/31 01:08:43;;;;;;;1.33;1.23;;;18.30;76.60;19.40;98966.00;;;;5069744;28;20265;-53
2023/10/31 01:11:09;;;;;;;1.20;1.20;;;18.30;76.60;19.20;98947.00;;;;5070374;28;20755;-53
2023/10/31 01:13:34;;;;;;;1.10;1.10;;;18.30;76.60;19.40;98897.00;;;;5070597;28;20241;-53
2023/10/31 01:16:00;;;;;;;1.07;1.07;;;18.30;76.60;19.40;98961.00;;;;5070844;28;20178;-53
2023/10/31 01:18:26;;;;;;;1.20;1.20;;;18.30;76.60;19.40;98953.00;;;;5070825;28;20186;-54
2023/10/31 01:20:52;;;;;;;1.87;1.77;;;18.30;76.70;19.30;98949.00;;;;5070491;28;20188;-54
2023/10/31 01:23:17;;;;;;;2.03;1.90;;;18.20;75.40;19.20;98966.00;;;;5070372;28;20290;-53
2023/10/31 01:25:43;;;;;;;2.00;1.90;;;18.10;74.90;19.10;98963.00;;;;5077619;28;20174;-55
2023/10/31 01:28:09;;;;;;;2.30;2.10;;;18.00;73.90;19.00;98968.00;;;;5076686;28;20621;-53
2023/10/31 01:30:35;;;;;;;2.63;2.30;;;17.90;73.20;18.90;98975.00;;;;5073364;28;20267;-54
2023/10/31 01:33:01;;;;;;;2.40;2.20;;;17.90;73.30;18.80;98978.00;;;;5071849;28;20640;-54
2023/10/31 01:35:29;;;;;;;2.33;2.20;;;17.90;72.90;18.70;98971.00;;;;5070668;28;20177;-53
2023/10/31 01:37:55;;;;;;;2.53;2.33;;;17.80;72.20;18.70;98986.00;;;;5070479;28;20183;-53
2023/10/31 01:40:21;;;;;;;2.30;2.10;;;17.80;71.60;18.60;98990.00;;;;5078258;28;20209;-53
2023/10/31 01:42:47;;;;;;;2.40;2.20;;;17.80;71.20;18.50;98985.00;;;;5071961;28;20197;-54
2023/10/31 01:45:13;;;;;;;2.77;2.37;;;17.70;70.40;18.50;98977.00;;;;5069655;28;20209;-54
2023/10/31 01:47:39;;;;;;;2.63;2.10;;;17.70;70.10;18.40;99001.00;;;;5068672;28;20223;-54
2023/10/31 01:50:06;;;;;;;2.07;1.90;;;17.70;70.10;18.40;99001.00;;;;5069703;28;20181;-54
2023/10/31 01:52:32;;;;;;;2.57;1.93;;;17.60;69.90;18.30;98996.00;;;;5068630;28;20177;-53
2023/10/31 01:54:59;;;;;;;3.30;2.20;;;17.60;69.80;18.30;98992.00;;;;5067978;28;20240;-54
2023/10/31 01:57:24;;;;;;;2.53;2.00;;;17.60;70.10;18.30;98998.00;;;;5068467;28;20178;-54
2023/10/31 01:59:50;;;;;;;2.37;2.00;;;17.50;70.00;18.30;98996.00;;;;5069546;28;20249;-54
2023/10/31 02:02:16;;;;;;;2.13;1.93;;;17.50;70.00;18.30;98936.00;;;;5068287;28;20733;-54
2023/10/31 02:04:42;;;;;;;2.53;2.10;;;17.50;70.20;18.30;98997.00;;;;5068101;28;20289;-54
2023/10/31 02:07:07;;;;;;;2.93;2.10;;;17.50;70.10;18.20;98992.00;;;;5069443;28;20264;-54
2023/10/31 02:09:33;;;;;;;3.07;2.40;;;17.50;70.50;18.20;98994.00;;;;5067914;28;20682;-54
2023/10/31 02:11:59;;;;;;;2.37;2.13;;;17.40;69.60;18.20;99001.00;;;;5068247;28;20820;-54
2023/10/31 02:14:25;;;;;;;2.23;2.00;;;17.50;70.00;18.20;98990.00;;;;5069413;28;20190;-54
2023/10/31 02:16:50;;;;;;;4.00;2.20;;;17.40;70.00;18.20;98990.00;;;;5069315;28;20185;-54
2023/10/31 02:19:20;;;;;;;2.60;2.00;;;17.40;69.80;18.10;98994.00;;;;5069380;28;20552;-54
2023/10/31 02:21:46;;;;;;;2.70;2.10;;;17.30;69.60;18.10;98986.00;;;;5060889;28;20203;-54
2023/10/31 02:24:11;;;;;;;2.87;1.93;;;17.40;69.80;18.10;98989.00;;;;5059326;28;21148;-54
2023/10/31 02:26:37;;;;;;;2.27;2.07;;;17.30;69.60;18.00;98993.00;;;;5069331;28;20177;-54
2023/10/31 02:29:03;;;;;;;2.63;2.10;;;17.30;69.50;18.00;98981.00;;;;5069082;28;20178;-54
2023/10/31 02:31:29;;;;;;;3.97;2.30;;;17.30;69.50;18.00;98994.00;;;;5068828;28;20235;-54
2023/10/31 02:33:55;;;;;;;2.57;2.20;;;17.20;69.40;18.00;98964.00;;;;5068705;28;20204;-54
2023/10/31 02:36:20;;;;;;;2.70;2.20;;;17.20;69.50;17.90;98984.00;;;;5067468;28;20181;-54
2023/10/31 02:38:46;;;;;;;2.77;2.27;;;17.20;69.50;17.90;98928.00;;;;5069084;28;20629;-54
2023/10/31 02:41:12;;;;;;;3.57;2.10;;;17.20;69.40;17.90;99002.00;;;;5068489;28;20185;-54
2023/10/31 02:43:39;;;;;;;2.70;2.20;;;17.20;69.60;17.90;98997.00;;;;5068659;28;20279;-54
2023/10/31 02:46:04;;;;;;;3.57;2.30;;;17.10;69.40;17.90;98997.00;;;;5068496;28;20660;-54
2023/10/31 02:48:37;;;;;;;2.40;2.20;;;17.10;69.50;17.80;99011.00;;;;5068786;28;20169;-53
2023/10/31 02:51:07;;;;;;;3.53;2.50;;;17.10;69.40;17.80;99001.00;;;;5068178;28;20184;-54
2023/10/31 02:53:33;;;;;;;3.10;2.30;;;17.10;69.50;17.80;99004.00;;;;5069040;28;20568;-54
2023/10/31 02:55:59;;;;;;;2.83;2.57;;;17.10;69.60;17.80;99002.00;;;;5068799;28;20652;-54
2023/10/31 02:58:25;;;;;;;2.97;2.30;;;17.00;69.50;17.70;99009.00;;;;5068614;28;20262;-54
2023/10/31 03:00:51;;;;;;;2.50;2.30;;;17.00;69.60;17.80;99008.00;;;;5068390;28;20527;-54
2023/10/31 03:03:16;;;;;;;2.80;2.50;;;17.00;69.60;17.70;99009.00;;;;5068321;28;20861;-54
2023/10/31 03:05:42;;;;;;;2.80;2.50;;;17.00;69.40;17.70;99014.00;;;;5068247;28;20197;-53
2023/10/31 03:08:10;;;;;;;3.07;2.77;;;17.00;69.50;17.70;99011.00;;;;5068471;28;20184;-54
2023/10/31 03:10:37;;;;;;;3.40;2.40;;;17.00;69.60;17.70;99016.00;;;;5068314;28;20204;-54
2023/10/31 03:13:03;;;;;;;3.50;2.40;;;17.00;70.40;17.70;99020.00;;;;5057949;28;20185;-54
2023/10/31 03:15:29;;;;;;;3.37;2.67;;;17.00;69.50;17.70;99024.00;;;;5058772;28;20188;-54
2023/10/31 03:17:54;;;;;;;2.60;2.40;;;16.90;69.40;17.60;99024.00;;;;5058319;28;20668;-54
2023/10/31 03:20:20;;;;;;;3.40;2.50;;;16.90;69.40;17.60;99019.00;;;;5069363;28;20251;-57
2023/10/31 03:22:46;;;;;;;2.97;2.50;;;16.80;69.20;17.60;99018.00;;;;5074829;28;20181;-54
2023/10/31 03:25:11;;;;;;;2.97;2.30;;;16.90;69.50;17.60;99017.00;;;;5068755;28;20204;-54
2023/10/31 03:27:37;;;;;;;2.70;2.40;;;16.80;69.40;17.50;99019.00;;;;5062307;28;20172;-54
2023/10/31 03:30:04;;;;;;;2.90;2.57;;;16.80;69.50;17.50;99020.00;;;;5048284;28;20182;-54
2023/10/31 03:32:30;;;;;;;2.97;2.20;;;16.80;69.50;17.50;99024.00;;;;5047986;28;20673;-54
2023/10/31 03:34:55;;;;;;;2.90;2.17;;;16.80;69.60;17.50;99021.00;;;;5062589;28;20205;-54
2023/10/31 03:37:21;;;;;;;2.50;2.30;;;16.80;69.60;17.50;99034.00;;;;5067390;28;20187;-54
2023/10/31 03:39:47;;;;;;;2.33;2.13;;;16.80;69.60;17.50;99024.00;;;;5067658;28;20185;-53
2023/10/31 03:42:12;;;;;;;2.37;2.07;;;16.80;69.70;17.50;99040.00;;;;5067896;28;20189;-54
2023/10/31 03:44:38;;;;;;;3.07;1.93;;;16.80;69.60;17.50;99040.00;;;;5067520;28;20205;-55
2023/10/31 03:47:04;;;;;;;3.53;2.20;;;16.80;69.70;17.50;99029.00;;;;5062720;28;20651;-54
2023/10/31 03:49:30;;;;;;;2.93;2.20;;;16.70;69.60;17.40;99028.00;;;;5062118;28;20176;-53
2023/10/31 03:51:56;;;;;;;3.17;2.30;;;16.70;69.60;17.40;99020.00;;;;5067875;28;20181;-54
2023/10/31 03:54:21;;;;;;;3.07;2.23;;;16.70;69.50;17.40;99038.00;;;;5058102;28;20675;-54
2023/10/31 03:56:48;;;;;;;2.87;2.20;;;16.70;69.60;17.40;99056.00;;;;5062301;28;20185;-54
2023/10/31 03:59:14;;;;;;;3.20;2.10;;;16.70;69.60;17.40;99048.00;;;;5068107;28;20181;-54
2023/10/31 04:01:40;;;;;;;2.87;2.30;;;16.70;69.60;17.40;99052.00;;;;5068670;28;20182;-54
2023/10/31 04:04:06;;;;;;;2.20;2.00;;;16.60;69.50;17.30;99042.00;;;;5068743;28;20216;-55
2023/10/31 04:06:32;;;;;;;2.27;2.00;;;16.70;69.70;17.30;99053.00;;;;5069356;28;20177;-53
2023/10/31 04:08:57;;;;;;;2.10;1.90;;;16.60;70.50;17.30;99052.00;;;;5050417;28;20212;-54
2023/10/31 04:11:23;;;;;;;2.23;2.00;;;16.60;69.80;17.30;99063.00;;;;5068600;28;20178;-53
2023/10/31 04:13:49;;;;;;;2.23;2.00;;;16.60;69.80;17.30;99067.00;;;;5068657;28;20508;-53
2023/10/31 04:16:16;;;;;;;2.50;1.90;;;16.60;69.80;17.30;99056.00;;;;5068648;28;20216;-54
2023/10/31 04:18:42;;;;;;;2.50;2.00;;;16.60;69.80;17.30;99070.00;;;;5067348;28;20268;-54
2023/10/31 04:21:07;;;;;;;2.20;2.00;;;16.60;70.00;17.30;99066.00;;;;5068380;28;20211;-54
2023/10/31 04:23:33;;;;;;;2.43;1.80;;;16.60;69.90;17.30;99071.00;;;;5068165;28;20761;-54
2023/10/31 04:25:59;;;;;;;2.23;1.80;;;16.60;69.90;17.30;99075.00;;;;5068343;28;20173;-54
2023/10/31 04:28:25;;;;;;;1.97;1.80;;;16.60;70.00;17.20;99071.00;;;;5061142;28;20191;-53
2023/10/31 04:30:50;;;;;;;2.97;2.00;;;16.60;70.30;17.30;99081.00;;;;5056393;28;20178;-53
2023/10/31 04:33:16;;;;;;;1.87;1.67;;;16.60;70.90;17.30;99074.00;;;;5059215;28;20241;-53
2023/10/31 04:35:42;;;;;;;1.90;1.70;;;16.60;70.90;17.40;99074.00;;;;5059597;28;20193;-53
2023/10/31 04:38:08;;;;;;;2.00;1.80;;;16.60;70.90;17.50;99088.00;;;;5056010;28;20182;-53
2023/10/31 04:40:33;;;;;;;2.53;1.70;;;16.60;71.10;17.50;99083.00;;;;5065802;28;20307;-53
2023/10/31 04:42:59;;;;;;;3.97;2.00;;;16.60;71.10;17.60;99093.00;;;;5068911;28;20184;-53
2023/10/31 04:45:25;;;;;;;1.77;1.60;;;16.70;71.10;17.60;99082.00;;;;5072039;28;20659;-53
2023/10/31 04:47:50;;;;;;;2.53;1.70;;;16.70;71.20;17.60;99087.00;;;;5072032;28;20183;-53
2023/10/31 04:50:16;;;;;;;2.00;1.80;;;16.70;71.20;17.60;99094.00;;;;5071732;28;20179;-55
2023/10/31 04:52:42;;;;;;;2.03;1.60;;;16.70;71.20;17.60;99098.00;;;;5072074;28;20181;-53
2023/10/31 04:55:08;;;;;;;4.23;1.60;;;16.70;71.20;17.60;99101.00;;;;5069746;28;20679;-52
2023/10/31 04:57:33;;;;;;;2.47;1.70;;;16.60;71.30;17.60;99099.00;;;;5066030;28;20181;-54
2023/10/31 04:59:59;;;;;;;5.03;1.73;;;16.70;71.60;17.70;99105.00;;;;5071673;28;20181;-53
2023/10/31 05:02:25;;;;;;;1.70;1.50;;;16.70;71.80;17.70;99114.00;;;;5071981;28;20191;-54
2023/10/31 05:04:51;;;;;;;1.63;1.50;;;16.60;71.80;17.70;99112.00;;;;5055249;28;20292;-54
2023/10/31 05:07:19;;;;;;;1.80;1.57;;;16.70;71.90;17.70;99108.00;;;;5072073;28;20264;-54
2023/10/31 05:09:45;;;;;;;1.60;1.50;;;16.70;72.10;17.70;99094.00;;;;5074014;28;20585;-53
2023/10/31 05:12:11;;;;;;;1.60;1.50;;;16.70;72.20;17.70;99119.00;;;;5074057;28;20177;-54
2023/10/31 05:14:38;;;;;;;2.70;1.70;;;16.60;72.20;17.70;99113.00;;;;5076862;28;20581;-53
2023/10/31 05:17:04;;;;;;;1.50;1.40;;;16.70;72.30;17.70;99117.00;;;;5057850;28;20184;-53
2023/10/31 05:19:30;;;;;;;1.67;1.57;;;16.70;72.40;17.70;99114.00;;;;5051569;28;20182;-54
2023/10/31 05:21:56;;;;;;;2.10;1.80;;;16.70;72.30;17.70;99116.00;;;;5051251;28;20241;-54
2023/10/31 05:24:21;;;;;;;1.93;1.70;;;16.70;72.30;17.70;99120.00;;;;5051250;28;20225;-53
2023/10/31 05:26:47;;;;;;;1.83;1.70;;;16.70;72.40;17.70;99111.00;;;;5051455;28;20559;-53
2023/10/31 05:29:13;;;;;;;1.93;1.60;;;16.70;72.50;17.70;99111.00;;;;5061938;28;20185;-54
2023/10/31 05:31:38;;;;;;;2.10;1.70;;;16.70;72.60;17.70;99116.00;;;;5052356;28;20174;-53
2023/10/31 05:34:04;;;;;;;2.47;1.80;;;16.70;72.70;17.70;99109.00;;;;5051203;28;20802;-52
2023/10/31 05:36:30;;;;;;;2.10;1.70;;;16.70;72.70;17.70;99103.00;;;;5050951;28;20185;-54
2023/10/31 05:38:56;;;;;;;5.30;2.10;;;16.70;72.90;17.70;99113.00;;;;5050984;28;20217;-53
2023/10/31 05:41:21;;;;;;;6.43;2.13;;;16.70;72.90;17.80;99120.00;;;;5049842;28;20192;-53
2023/10/31 05:43:47;;;;;;;8.17;2.00;;;16.70;72.90;17.70;99123.00;;;;5050494;28;20212;-53
2023/10/31 05:46:14;;;;;;;7.97;1.90;;;16.70;73.00;17.80;99128.00;;;;5050969;28;20736;-57
2023/10/31 05:48:44;;;;;;;4.50;1.80;;;16.70;72.90;17.70;99129.00;;;;5050752;28;20629;-54
2023/10/31 05:51:18;;;;;;;6.80;2.20;;;16.70;72.90;17.70;99130.00;;;;5050160;28;20192;-53
2023/10/31 05:53:46;;;;;;;5.07;2.10;;;16.60;72.90;17.70;99128.00;;;;5050383;28;20278;-54
2023/10/31 05:56:13;;;;;;;4.07;2.07;;;16.70;73.10;17.70;99124.00;;;;5050139;28;20704;-54
2023/10/31 05:58:39;;;;;;;4.50;1.90;;;16.70;73.10;17.70;99148.00;;;;5062833;28;20211;-55
2023/10/31 06:01:05;;;;;;;2.70;1.70;;;16.70;73.20;17.70;99150.00;;;;5063707;28;20246;-54
2023/10/31 06:03:31;;;;;;;5.37;2.00;;;16.60;73.10;17.70;99156.00;;;;5061030;28;20220;-54
2023/10/31 06:05:56;;;;;;;4.67;2.00;;;16.70;73.20;17.70;99152.00;;;;5061978;28;20178;-55
2023/10/31 06:08:24;;;;;;;6.60;2.07;;;16.70;73.10;17.70;99163.00;;;;5069842;28;20177;-53
2023/10/31 06:10:50;;;;;;;5.20;2.03;;;16.60;72.90;17.70;99163.00;;;;5069942;28;20556;-54
2023/10/31 06:13:16;;;;;;;7.20;2.00;;;16.70;73.20;17.60;99173.00;;;;5069985;28;20197;-53
2023/10/31 06:15:43;;;;;;;2.90;1.90;;;16.70;73.10;17.80;99166.00;;;;5060235;28;20193;-53
2023/10/31 06:18:08;;;;;;;3.70;2.03;;;16.70;73.10;17.80;99180.00;;;;5057487;28;20198;-53
2023/10/31 06:20:35;;;;;;;4.33;1.87;;;16.70;73.10;17.70;99183.00;;;;5069587;28;20178;-53
2023/10/31 06:23:03;;;;;;;4.83;1.80;;;16.60;73.10;17.70;99186.00;;;;5069465;28;20768;-54
2023/10/31 06:25:29;;;;;;;2.87;2.07;;;16.70;73.20;17.70;99204.00;;;;5070143;28;20185;-54
2023/10/31 06:27:55;;;;;;;3.90;1.80;;;16.70;73.20;17.70;99201.00;;;;5061194;28;20174;-54
2023/10/31 06:30:21;;;;;;;2.67;1.73;;;16.70;73.30;17.70;99205.00;;;;5049218;28;20262;-55
2023/10/31 06:32:47;;;;;;;5.50;1.90;;;16.70;73.30;17.70;99211.00;;;;5049501;28;20188;-54
2023/10/31 06:35:12;;;;;;;2.67;1.90;;;16.70;73.30;17.70;99207.00;;;;5049320;28;20209;-54
2023/10/31 06:37:38;;;;;;;1.90;1.70;;;16.70;73.40;17.70;99211.00;;;;5050749;28;20173;-53
2023/10/31 06:40:05;;;;;;;6.33;1.67;;;16.70;73.40;17.70;99215.00;;;;5047601;28;20684;-54
2023/10/31 06:42:31;;;;;;;1.87;1.70;;;16.70;73.40;17.70;99206.00;;;;5048821;28;20189;-53
2023/10/31 06:44:56;;;;;;;5.60;1.70;;;16.60;73.30;17.70;99209.00;;;;5049630;28;20206;-53
2023/10/31 06:47:22;;;;;;;4.03;2.00;;;16.60;73.30;17.70;99221.00;;;;5049548;28;20204;-53
2023/10/31 06:49:48;;;;;;;2.13;1.60;;;16.70;73.50;17.70;99226.00;;;;5048813;28;20656;-53
2023/10/31 06:52:14;;;;;;;2.70;1.70;;;16.70;73.50;17.70;99234.00;;;;5049054;28;20174;-54
2023/10/31 06:54:39;;;;;;;1.73;1.57;;;16.70;73.60;17.70;99235.00;;;;5049766;28;20198;-53
2023/10/31 06:57:05;;;;;;;3.80;1.60;;;16.70;73.70;17.70;99243.00;;;;5049655;28;20178;-53
2023/10/31 06:59:31;;;;;;;1.87;1.73;;;16.70;73.70;17.70;99210.00;;;;5049586;28;20224;-53
2023/10/31 07:01:56;;;;;;;1.90;1.60;;;16.70;73.70;17.70;99244.00;;;;5063241;28;20264;-54
2023/10/31 07:04:22;;;;;;;2.83;1.70;;;16.70;73.80;17.70;99250.00;;;;5067442;28;20213;-53
2023/10/31 07:06:48;;;;;;;1.90;1.70;;;16.60;73.70;17.70;99254.00;;;;5068389;28;20250;-53
2023/10/31 07:09:14;;;;;;;1.60;1.50;;;16.60;73.70;17.70;99251.00;;;;5074372;28;20534;-54
2023/10/31 07:11:40;;;;;;;2.33;1.70;;;16.70;73.80;17.70;99251.00;;;;5070525;28;20226;-53
2023/10/31 07:14:05;;;;;;;2.93;1.73;;;16.70;73.80;17.70;99257.00;;;;5055608;28;20254;-53
2023/10/31 07:16:32;;;;;;;1.80;1.67;;;16.60;73.70;17.70;99260.00;;;;5062919;28;20181;-53
2023/10/31 07:18:58;;;;;;;1.93;1.73;;;16.60;73.70;17.60;99262.00;;;;5064753;28;20181;-54
2023/10/31 07:21:24;;;;;;;1.70;1.60;;;16.70;73.80;17.60;99268.00;;;;5067109;28;20188;-54
2023/10/31 07:23:50;;;;;;;1.40;1.30;;;16.70;73.80;17.60;99262.00;;;;5066079;28;20618;-53
2023/10/31 07:26:16;;;;;;;3.23;1.77;;;16.70;73.80;17.60;99264.00;;;;5066581;28;20239;-54
2023/10/31 07:28:41;;;;;;;2.40;1.70;;;16.70;73.80;17.60;99267.00;;;;5066545;28;20176;-53
2023/10/31 07:31:07;;;;;;;1.57;1.27;;;16.60;73.70;17.60;99270.00;;;;5067254;28;20173;-53
2023/10/31 07:33:33;;;;;;;2.23;1.67;;;16.60;73.70;17.60;99272.00;;;;5050247;28;20205;-54
2023/10/31 07:35:58;;;;;;;2.50;1.47;;;16.60;74.00;17.60;99276.00;;;;5067488;28;20201;-54
2023/10/31 07:38:24;;;;;;;5.50;1.93;;;16.70;73.90;17.60;99281.00;;;;5068961;28;20181;-54
2023/10/31 07:40:50;;;;;;;2.17;1.60;;;16.70;74.10;17.70;99283.00;;;;5067859;28;20652;-53
2023/10/31 07:43:16;;;;;;;3.83;1.60;;;16.70;74.20;17.70;99280.00;;;;5053096;28;20233;-54
2023/10/31 07:45:42;;;;;;;5.50;1.90;;;16.70;74.10;17.70;99279.00;;;;5055284;28;20196;-53
2023/10/31 07:48:08;;;;;;;4.27;1.80;;;16.70;74.20;17.70;99270.00;;;;5059897;28;20178;-52
2023/10/31 07:50:34;;;;;;;2.03;1.80;;;16.70;74.50;17.70;99278.00;;;;5059134;28;20679;-53
2023/10/31 07:53:00;;;;;;;2.80;1.70;;;16.70;74.70;17.70;99273.00;;;;5063598;28;20174;-54
2023/10/31 07:55:26;;;;;;;5.37;2.00;;;16.80;74.90;17.70;99283.00;;;;5068395;28;20326;-54
2023/10/31 07:57:51;;;;;;;4.13;1.73;;;16.80;74.70;17.70;99288.00;;;;5068007;28;20601;-54
2023/10/31 08:00:17;;;;;;;2.97;1.87;;;16.90;74.70;17.70;99288.00;;;;5067389;28;20705;-54
2023/10/31 08:02:43;;;;;;;2.40;1.60;;;17.00;74.70;17.80;99280.00;;;;5063147;28;20202;-54
2023/10/31 08:05:10;;;;;;;2.67;1.60;;;17.10;74.80;17.90;99311.00;;;;5051629;28;20305;-54
2023/10/31 08:07:35;;;;;;;1.70;1.60;;;17.20;74.50;17.90;99307.00;;;;5056394;28;20177;-54
2023/10/31 08:10:01;;;;;;;2.80;1.60;;;17.40;74.60;18.00;99311.00;;;;5063739;28;20657;-54
2023/10/31 08:12:27;;;;;;;2.40;1.80;;;17.50;74.60;18.10;99310.00;;;;5059090;28;20551;-54
2023/10/31 08:14:53;;;;;;;2.57;1.50;;;17.60;74.50;18.20;99313.00;;;;5060923;28;20205;-54
2023/10/31 08:17:18;;;;;;;2.87;1.57;;;17.70;74.50;18.30;99294.00;;;;5068869;28;20785;-54
2023/10/31 08:19:44;;;;;;;2.40;1.70;;;17.80;74.40;18.30;99304.00;;;;5071536;28;20178;-54
2023/10/31 08:22:10;;;;;;;1.77;1.60;;;17.90;74.50;18.40;99304.00;;;;5071742;28;20186;-54
2023/10/31 08:24:36;;;;;;;1.60;1.50;;;18.00;74.70;18.30;99318.00;;;;5071588;28;20205;-52
2023/10/31 08:27:02;;;;;;;2.20;1.53;;;18.00;74.80;18.50;99321.00;;;;5071921;28;20174;-54
2023/10/31 08:29:28;;;;;;;2.10;1.40;;;18.10;75.00;18.60;99329.00;;;;5071339;28;20181;-53
2023/10/31 08:31:54;;;;;;;1.60;1.50;;;18.10;75.20;18.60;99328.00;;;;5070827;28;20682;-54
2023/10/31 08:34:20;;;;;;;2.07;1.60;;;18.10;75.30;18.70;99339.00;;;;5071000;28;20228;-54
2023/10/31 08:36:45;;;;;;;2.13;1.50;;;18.10;75.60;18.70;99335.00;;;;5070631;28;20205;-54
2023/10/31 08:39:11;;;;;;;1.67;1.50;;;18.10;76.00;18.70;99342.00;;;;5070409;28;20177;-54
2023/10/31 08:41:39;;;;;;;1.87;1.57;;;18.20;76.10;18.80;99348.00;;;;5070730;28;20176;-54
2023/10/31 08:44:05;;;;;;;2.20;1.40;;;18.20;76.00;18.80;99350.00;;;;5071328;28;20208;-53
2023/10/31 08:46:31;;;;;;;2.00;1.60;;;18.10;75.90;18.80;99340.00;;;;5071509;28;20220;-54
2023/10/31 08:48:57;;;;;;;2.83;1.60;;;18.20;75.90;18.80;99351.00;;;;5069580;28;20761;-53
2023/10/31 08:51:23;;;;;;;1.93;1.50;;;18.20;76.00;18.80;99348.00;;;;5072427;28;20220;-54
2023/10/31 08:53:48;;;;;;;2.70;1.43;;;18.20;76.10;18.90;99365.00;;;;5073430;28;20213;-54
2023/10/31 08:56:15;;;;;;;2.33;1.63;;;18.20;76.10;18.80;99361.00;;;;5072779;28;20296;-54
2023/10/31 08:58:41;;;;;;;1.73;1.50;;;18.20;76.20;18.90;99372.00;;;;5069819;28;20189;-53
2023/10/31 09:01:07;;;;;;;5.13;1.80;;;18.10;76.10;18.80;99361.00;;;;5070482;28;20185;-53
2023/10/31 09:03:32;;;;;;;5.00;1.80;;;18.10;76.30;18.80;99374.00;;;;5053881;28;20259;-52
2023/10/31 09:05:58;;;;;;;4.00;1.70;;;18.10;76.40;18.80;99375.00;;;;5084433;28;20181;-51
2023/10/31 09:08:24;;;;;;;3.67;1.73;;;18.10;76.30;18.80;99373.00;;;;5072305;28;20263;-52
2023/10/31 09:10:49;;;;;;;4.30;1.83;;;18.10;76.20;18.80;99358.00;;;;5070614;28;20192;-52
2023/10/31 09:13:15;;;;;;;4.33;1.90;;;18.10;76.30;18.80;99384.00;;;;5070248;28;20174;-52
2023/10/31 09:15:41;;;;;;;2.77;1.60;;;18.10;76.60;18.80;99380.00;;;;5071276;28;20197;-51
2023/10/31 09:18:07;;;;;;;5.20;1.83;;;18.10;76.60;18.80;99387.00;;;;5056831;28;20174;-50
2023/10/31 09:20:33;;;;;;;3.23;1.80;;;18.10;76.80;18.80;99391.00;;;;5081913;28;20173;-51
2023/10/31 09:22:59;;;;;;;3.07;1.53;;;18.10;76.80;18.80;99395.00;;;;5070501;28;20195;-52
2023/10/31 09:25:24;;;;;;;2.30;1.77;;;18.10;76.90;18.80;99398.00;;;;5070778;28;20205;-51
2023/10/31 09:27:50;;;;;;;4.33;1.70;;;18.00;77.00;18.80;99407.00;;;;5070441;28;20178;-51
2023/10/31 09:30:16;;;;;;;3.80;1.60;;;18.10;77.10;18.80;99400.00;;;;5057141;28;20889;-52
2023/10/31 09:32:41;;;;;;;1.73;1.63;;;18.10;77.20;18.80;99406.00;;;;5068038;28;20223;-52
2023/10/31 09:35:08;;;;;;;2.87;1.60;;;18.00;76.90;18.80;99411.00;;;;5069457;28;20351;-51
2023/10/31 09:37:33;;;;;;;2.73;1.77;;;18.00;76.80;18.80;99412.00;;;;5085132;28;20589;-51
2023/10/31 09:39:59;;;;;;;3.20;1.70;;;18.00;76.80;18.80;99413.00;;;;5070012;28;20189;-51
2023/10/31 09:42:25;;;;;;;3.20;1.60;;;18.00;76.80;18.80;99419.00;;;;5069849;28;20177;-52
2023/10/31 09:44:51;;;;;;;1.90;1.70;;;18.00;76.80;18.80;99423.00;;;;5065052;28;20218;-51
2023/10/31 09:47:17;;;;;;;3.47;1.43;;;18.00;76.80;18.80;99428.00;;;;5068944;28;20182;-52
2023/10/31 09:49:42;;;;;;;2.47;1.53;;;18.00;76.80;18.80;99430.00;;;;5070153;28;20182;-52
2023/10/31 09:52:08;;;;;;;5.47;2.00;;;18.00;76.70;18.80;99431.00;;;;5051525;28;20178;-52
2023/10/31 09:54:34;;;;;;;2.73;1.53;;;17.90;76.70;18.80;99428.00;;;;5068940;28;20216;-51
2023/10/31 09:57:00;;;;;;;2.00;1.70;;;17.90;76.90;18.80;99430.00;;;;5068638;28;20606;-52
2023/10/31 09:59:26;;;;;;;7.30;1.97;;;18.00;77.40;18.80;99442.00;;;;5068603;28;20205;-52
2023/10/31 10:01:52;;;;;;;9.70;2.10;;;18.00;77.60;18.80;99439.00;;;;5068978;28;20212;-52
2023/10/31 10:04:18;;;;;;;4.63;1.80;;;18.00;77.50;18.80;99440.00;;;;5063616;28;20227;-52
2023/10/31 10:07:02;;;;;;;4.07;1.80;;;18.00;77.40;18.80;99459.00;;;;5068479;28;20193;-52
2023/10/31 10:09:29;;;;;;;3.30;1.80;;;17.90;77.30;18.80;99456.00;;;;5068316;28;20238;-52
2023/10/31 10:11:55;;;;;;;3.67;2.00;;;17.90;77.30;18.80;99466.00;;;;5061642;28;20178;-52
2023/10/31 10:14:23;;;;;;;4.83;2.07;;;17.90;77.40;18.80;99473.00;;;;5063565;28;20284;-52
2023/10/31 10:16:49;;;;;;;3.43;1.63;;;17.90;77.40;18.70;99475.00;;;;5054900;28;20735;-52
2023/10/31 10:19:22;;;;;;;3.40;1.60;;;17.90;77.60;18.70;99468.00;;;;5056332;28;20260;-52
2023/10/31 10:21:56;;;;;;;2.87;1.60;;;17.90;77.60;18.70;99471.00;;;;5060905;28;20189;-54
2023/10/31 10:24:23;;;;;;;2.63;1.97;;;17.90;77.70;18.70;99471.00;;;;5048887;28;20208;-52
2023/10/31 10:26:48;;;;;;;3.50;1.70;;;17.90;77.70;18.70;99471.00;;;;5070322;28;20197;-53
2023/10/31 10:29:15;;;;;;;4.23;1.70;;;17.90;77.70;18.70;99477.00;;;;5067028;28;20610;-52
2023/10/31 10:31:41;;;;;;;4.07;1.70;;;17.90;77.60;18.70;99484.00;;;;5061934;28;20236;-52
2023/10/31 10:34:13;;;;;;;2.53;1.67;;;17.90;77.60;18.70;99488.00;;;;5068391;28;20564;-53
2023/10/31 10:36:38;;;;;;;2.03;1.60;;;17.80;77.60;18.70;99489.00;;;;5069949;28;20177;-52
2023/10/31 10:39:04;;;;;;;1.60;1.50;;;17.90;77.70;18.70;99488.00;;;;5068742;28;20303;-53
2023/10/31 10:41:30;;;;;;;4.60;1.60;;;17.90;77.70;18.70;99495.00;;;;5067441;28;20265;-53
2023/10/31 10:44:06;;;;;;;2.13;1.90;;;17.80;77.40;18.70;99488.00;;;;5068202;28;20209;-52
2023/10/31 10:46:36;;;;;;;2.73;1.63;;;17.80;77.50;18.70;99488.00;;;;5069714;28;20220;-52
2023/10/31 10:49:06;;;;;;;2.00;1.80;;;17.80;77.40;18.70;99489.00;;;;5070005;28;20180;-52